Back to top

Gillette, WY weather

Gillette-Campbell County Airport (AMOS), Gillette, WY: 7/22/2019 13:53
Visibility10 statute milesclear sky
View 7-Day Forecast
Area Summary
Sky/CloudsSky Clear
Weather [last 24 hours]None
Pressure30.27 in.Hg (1025 hPa)
Dew Point59 °F (15 °C)
Relative Humidity48.7 %
Temperature80.1 °F (26.7 °C)red thermometer
Reading TimeMinimum to Maximum Temperature
6-hr ending 7/22@11:5357 °F to 75.9 °F (13.9 °C to 24.4 °C)
6-hr ending 7/22@05:5357 °F to 64 °F (13.9 °C to 17.8 °C)
6-hr ending 7/21@23:5363 °F to 75.9 °F (17.2 °C to 24.4 °C)
6-hr ending 7/21@17:5366 °F to 75.9 °F (18.9 °C to 24.4 °C)
24-hr ending 7/22@00:5362.1 °F to 75.9 °F (16.7 °C to 24.4 °C)
Wind17.3 MPH (15 KT) green arrow pointing 157.5 degrees
Wind FromSouth/Southeast (150 Degrees)
Rolling 24-hr Peak Wind36.8 MPH (32 KT) on 7/22@09:18
Rolling 24-hr Peak Wind FromSouth/Southeast (150 Degrees)
Twilight Begins05:03Sunshine Yesterday
Sunrise05:38N/A
Sunset20:39
Twilight Ends21:13
METARKGCC 221953Z AUTO 15015KT 10SM CLR 27/15 A3027 RMK AO2 SLP204 T02670150
Tags: